Mijn Webcam Meer informatie Mijn Webcam


webcam facing north-east Meer informatie webcam facing north-east


Regen radar Meer informatie rain snow radar


Bezoek onze andere website:

Template documentation
and downloads

And another site


CBI



METAR rapporten vliegvelden

   
EHGG - Groningen/Eelde
Gewijzigd: 22-08-2017 10:55
Grotendeels bewolkt  
Grotendeels bewolkt  
   Wind: Oosten 2,1 m/s
Wind: Oosten 2,1 m/s
Temperatuur: 17°C
Dauwpunt: 12°C
Vochtigheid: 73%
Barometer: 1022 hPa
Bewolking: Grotendeels bewolkt
Zicht: More then 10 km
Bewolking: Grotendeels bewolkt 1371,6 m
EHGG 220855Z AUTO 09004KT 060V130 9999 BKN045 17/12 Q1022 NOSIG
EHMA - Schiermonnikoog
Gewijzigd: 22-08-2017 10:55
Gedeeltelijk bewolkt  
Gedeeltelijk bewolkt  
   Wind: ZO 2,6 m/s
Wind: ZO 2,6 m/s
Temperatuur: 16°C
Dauwpunt: 11°C
Vochtigheid: 72%
Barometer: 1023 hPa
Bewolking: Gedeeltelijk bewolkt
Zicht: More then 10 km
Bewolking: Gedeeltelijk bewolkt
EHMA 220855Z AUTO 13005KT 080V160 9999 NSC 16/11 Q1023
EHMG - Terschelling
Gewijzigd: 22-08-2017 10:55
Gedeeltelijk bewolkt  
Gedeeltelijk bewolkt  
   Wind: ZO 3,6 m/s
Wind: ZO 3,6 m/s
Temperatuur: 17°C
Dauwpunt: 12°C
Vochtigheid: 73%
Barometer: 1022 hPa
Bewolking: Gedeeltelijk bewolkt
Zicht: More then 10 km
Bewolking: Gedeeltelijk bewolkt
EHMG 220855Z AUTO 13007KT 9999 NSC 17/12 Q1022
EHVL - Vlieland
Gewijzigd: 22-08-2017 10:55
Grotendeels bewolkt  
Grotendeels bewolkt  
   Wind: OZO 4,6 m/s
Wind: OZO 4,6 m/s
Temperatuur: 17°C
Dauwpunt: 13°C
Vochtigheid: 77%
Barometer: 1022 hPa
Bewolking: Grotendeels bewolkt
Zicht: More then 10 km
Bewolking: Grotendeels bewolkt 4267,2 m,
Grotendeels bewolkt 7315,2 m
EHVL 220855Z AUTO 11009KT 9999 BKN140 BKN240 17/13 Q1022 BLU
ETWM - Meppen, Germany
Gewijzigd: 22-08-2017 10:20
Gedeeltelijk bewolkt  
Gedeeltelijk bewolkt  
   Wind: NO 0,5 m/s
Wind: NO 0,5 m/s
Temperatuur: 17°C
Dauwpunt: 11°C
Vochtigheid: 68%
Barometer: 1023 hPa
Bewolking: Gedeeltelijk bewolkt
Zicht: More then 10 km
Bewolking: Licht bewolkt 1524 m,
Gedeeltelijk bewolkt 8229,6 m
ETWM 220820Z 05001KT 9999 FEW050 SCT270 17/11 Q1023 BLU+
 

Script ontwikkeld door  Saratoga-weather.org Aangepast voor de template door  Weerstation Leuven

U vindt ons ook hier:

Het Weer Aktueel

UK Metoffice

European Weather Network

WeatherCloud

Weather Underground

Benelux Weer Netwerk

AWEKAS

WeatherlinkIP

HAMweather, WeatherForYou, PWS Weather

Apparatuur in gebruik:

Weerstation
Davis VP2 Plus

Weerprogramma
Cumulus

Weercomputer
ASUS Eee Box B202

Webleverancier
Antagonist

Davis VP2 Plus

Cumulus

ASUS Eee Box B202

Antagonist